createdAt,value
2023-05-05T00:01:14.700Z,96264.50
2023-05-05T00:04:17.845Z,96256.97
2023-05-05T00:07:20.149Z,96253.06
2023-05-05T00:10:24.183Z,96252.69
2023-05-05T00:13:26.096Z,96248.66
2023-05-05T00:16:27.801Z,96241.97
2023-05-05T00:19:29.920Z,96252.47
2023-05-05T00:22:32.144Z,96242.13
2023-05-05T00:25:34.365Z,96241.59
2023-05-05T00:28:36.226Z,96248.09
2023-05-05T00:31:38.798Z,96238.03
2023-05-05T00:34:42.213Z,96240.19
2023-05-05T00:37:44.384Z,96239.34
2023-05-05T00:40:46.448Z,96239.13
2023-05-05T00:43:48.779Z,96244.63
2023-05-05T00:46:52.196Z,96257.28
2023-05-05T00:49:54.062Z,96242.72
2023-05-05T00:53:00.770Z,96249.06
2023-05-05T00:56:03.920Z,96244.72
2023-05-05T00:59:07.142Z,96242.22
2023-05-05T01:02:10.572Z,96236.34
2023-05-05T01:05:14.160Z,96240.84
2023-05-05T01:08:36.405Z,96252.50
2023-05-05T01:11:46.635Z,96238.78
2023-05-05T01:14:59.246Z,96242.59
2023-05-05T01:18:11.655Z,96240.25
2023-05-05T01:21:31.671Z,96244.38
2023-05-05T01:25:02.689Z,96245.38
2023-05-05T01:28:25.032Z,96230.34
2023-05-05T01:31:52.105Z,96230.50
2023-05-05T01:34:57.559Z,96232.13
2023-05-05T01:38:16.749Z,96242.78
2023-05-05T01:41:27.579Z,96242.94
2023-05-05T01:44:31.462Z,96249.44
2023-05-05T01:47:33.835Z,96249.56
2023-05-05T01:50:37.335Z,96246.22
2023-05-05T01:53:41.722Z,96245.69
2023-05-05T01:56:46.447Z,96243.88
2023-05-05T01:59:51.612Z,96233.13
2023-05-05T02:02:57.346Z,96234.94
2023-05-05T02:06:02.060Z,96244.94
2023-05-05T02:09:06.577Z,96246.75
2023-05-05T02:12:09.552Z,96245.53
2023-05-05T02:15:14.639Z,96254.22
2023-05-05T02:18:18.322Z,96252.97
2023-05-05T02:21:21.000Z,96252.16
2023-05-05T02:24:23.296Z,96257.66
2023-05-05T02:27:26.881Z,96263.13
2023-05-05T02:30:42.389Z,96266.78
2023-05-05T02:33:47.508Z,96256.59
2023-05-05T02:36:53.460Z,96259.91
2023-05-05T02:40:01.690Z,96259.25
2023-05-05T02:43:11.404Z,96266.25
2023-05-05T02:46:13.792Z,96258.41
2023-05-05T02:49:19.911Z,96260.09
2023-05-05T02:52:23.008Z,96261.06
2023-05-05T02:55:42.985Z,96257.34
2023-05-05T02:58:54.902Z,96259.53
2023-05-05T03:02:25.272Z,96266.69
2023-05-05T03:05:35.265Z,96249.47
2023-05-05T03:09:13.890Z,96252.00
2023-05-05T03:12:22.412Z,96249.00
2023-05-05T03:15:50.050Z,96251.69
2023-05-05T03:19:07.325Z,96252.84
2023-05-05T03:22:10.718Z,96247.50
2023-05-05T03:25:17.445Z,96233.09
2023-05-05T03:28:20.436Z,96246.97
2023-05-05T03:31:24.375Z,96234.94
2023-05-05T03:34:30.056Z,96246.25
2023-05-05T03:37:34.272Z,96245.75
2023-05-05T03:40:44.141Z,96241.53
2023-05-05T03:43:50.559Z,96247.19
2023-05-05T03:46:52.447Z,96253.03
2023-05-05T03:49:55.311Z,96252.19
2023-05-05T03:52:57.089Z,96254.19
2023-05-05T03:55:59.691Z,96251.81
2023-05-05T03:59:01.313Z,96248.59
2023-05-05T04:02:04.668Z,96247.94
2023-05-05T04:05:06.401Z,96245.41
2023-05-05T04:08:08.602Z,96253.25
2023-05-05T04:11:19.891Z,96249.06
2023-05-05T04:14:25.587Z,96262.22
2023-05-05T04:17:28.219Z,96251.44
2023-05-05T04:20:33.926Z,96256.59
2023-05-05T04:23:35.784Z,96260.78
2023-05-05T04:26:38.435Z,96261.50
2023-05-05T04:29:41.154Z,96258.50
2023-05-05T04:32:43.136Z,96267.59
2023-05-05T04:35:45.684Z,96263.66
2023-05-05T04:38:50.451Z,96278.75
2023-05-05T04:41:53.465Z,96275.63
2023-05-05T04:44:56.505Z,96275.00
2023-05-05T04:48:00.262Z,96276.94
2023-05-05T04:51:08.289Z,96275.88
2023-05-05T04:54:11.518Z,96270.91
2023-05-05T04:57:13.520Z,96275.63
2023-05-05T05:00:16.882Z,96274.88
2023-05-05T05:03:19.111Z,96270.75
2023-05-05T05:06:22.145Z,96284.00
2023-05-05T05:09:27.395Z,96287.59
2023-05-05T05:12:33.374Z,96296.34
2023-05-05T05:15:38.383Z,96284.22
2023-05-05T05:18:41.024Z,96288.44
2023-05-05T05:21:43.144Z,96291.34
2023-05-05T05:24:45.324Z,96289.41
2023-05-05T05:28:02.009Z,96287.63
2023-05-05T05:31:12.055Z,96291.75
2023-05-05T05:34:16.986Z,96281.94
2023-05-05T05:37:20.631Z,96291.66
2023-05-05T05:40:25.467Z,96287.53
2023-05-05T05:43:31.114Z,96296.94
2023-05-05T05:46:35.905Z,96294.97
2023-05-05T05:49:38.852Z,96286.81
2023-05-05T05:52:43.296Z,96290.84
2023-05-05T05:55:48.102Z,96285.53
2023-05-05T05:59:01.510Z,96292.09
2023-05-05T06:02:08.226Z,96289.13
2023-05-05T06:05:13.581Z,96294.13
2023-05-05T06:08:17.352Z,96292.00
2023-05-05T06:11:26.908Z,96289.97
2023-05-05T06:14:32.564Z,96287.31
2023-05-05T06:17:35.576Z,96292.88
2023-05-05T06:20:40.269Z,96293.38
2023-05-05T06:23:47.272Z,96296.38
2023-05-05T06:27:01.225Z,96287.50
2023-05-05T06:30:09.791Z,96284.13
2023-05-05T06:33:12.575Z,96282.75
2023-05-05T06:36:19.045Z,96289.75
2023-05-05T06:39:23.013Z,96282.16
2023-05-05T06:42:25.785Z,96282.94
2023-05-05T06:45:31.134Z,96291.91
2023-05-05T06:48:35.202Z,96294.88
2023-05-05T06:51:36.822Z,96285.25
2023-05-05T06:54:41.053Z,96288.69
2023-05-05T06:57:43.343Z,96294.13
2023-05-05T07:00:48.948Z,96292.13
2023-05-05T07:04:00.160Z,96293.50
2023-05-05T07:07:06.157Z,96292.16
2023-05-05T07:10:09.643Z,96286.78
2023-05-05T07:13:21.064Z,96285.00
2023-05-05T07:16:25.402Z,96265.50
2023-05-05T07:19:28.619Z,96288.16
2023-05-05T07:22:31.370Z,96273.66
2023-05-05T07:25:34.918Z,96273.47
2023-05-05T07:28:40.958Z,96274.44
2023-05-05T07:31:45.018Z,96267.16
2023-05-05T07:34:47.447Z,96283.75
2023-05-05T07:37:52.187Z,96275.00
2023-05-05T07:40:56.987Z,96266.63
2023-05-05T07:44:04.414Z,96267.56
2023-05-05T07:47:07.621Z,96275.19
2023-05-05T07:50:10.674Z,96275.31
2023-05-05T07:53:14.908Z,96282.09
2023-05-05T07:56:21.572Z,96271.00
2023-05-05T07:59:26.637Z,96274.81
2023-05-05T08:02:28.555Z,96280.94
2023-05-05T08:05:33.613Z,96279.31
2023-05-05T08:08:36.447Z,96282.06
2023-05-05T08:11:51.733Z,96282.38
2023-05-05T08:15:03.142Z,96290.75
2023-05-05T08:18:15.144Z,96288.72
2023-05-05T08:21:22.825Z,96283.97
2023-05-05T08:24:26.105Z,96285.47
2023-05-05T08:27:28.453Z,96278.41
2023-05-05T08:30:31.916Z,96284.44
2023-05-05T08:33:33.791Z,96286.94
2023-05-05T08:36:36.610Z,96284.84
2023-05-05T08:39:39.432Z,96276.94
2023-05-05T08:42:48.860Z,96279.66
2023-05-05T08:45:56.355Z,96281.34
2023-05-05T08:49:03.945Z,96276.94
2023-05-05T08:52:10.172Z,96277.13
2023-05-05T08:55:23.655Z,96271.50
2023-05-05T08:58:30.754Z,96279.41
2023-05-05T09:01:37.562Z,96276.06
2023-05-05T09:04:40.904Z,96277.47
2023-05-05T09:07:47.231Z,96277.03
2023-05-05T09:10:51.342Z,96276.00
2023-05-05T09:14:02.339Z,96275.13
2023-05-05T09:17:06.039Z,96272.59
2023-05-05T09:20:13.811Z,96271.97
2023-05-05T09:23:26.698Z,96271.31
2023-05-05T09:26:36.507Z,96269.44
2023-05-05T09:29:42.750Z,96264.41
2023-05-05T09:32:55.594Z,96268.38
2023-05-05T09:35:57.602Z,96259.81
2023-05-05T09:39:14.936Z,96259.78
2023-05-05T09:42:20.410Z,96252.19
2023-05-05T09:45:28.138Z,96246.34
2023-05-05T09:48:32.368Z,96254.22
2023-05-05T09:51:34.265Z,96254.84
2023-05-05T09:54:42.618Z,96240.00
2023-05-05T09:57:47.625Z,96255.19
2023-05-05T10:00:53.423Z,96247.22
2023-05-05T10:03:55.252Z,96247.41
2023-05-05T10:07:00.933Z,96245.91
2023-05-05T10:10:07.446Z,96245.47
2023-05-05T10:13:11.519Z,96245.19
2023-05-05T10:16:18.564Z,96244.09
2023-05-05T10:19:24.324Z,96230.47
2023-05-05T10:22:31.113Z,96239.56
2023-05-05T10:25:51.293Z,96228.78
2023-05-05T10:29:04.147Z,96232.44
2023-05-05T10:32:50.169Z,96228.84
2023-05-05T10:35:56.646Z,96218.94
2023-05-05T10:39:04.554Z,96219.25
2023-05-05T10:42:29.858Z,96218.97
2023-05-05T10:45:40.428Z,96217.81
2023-05-05T10:49:03.031Z,96207.31
2023-05-05T10:52:12.266Z,96204.75
2023-05-05T10:56:01.862Z,96208.50
2023-05-05T10:59:25.425Z,96208.38
2023-05-05T11:02:31.678Z,96200.09
2023-05-05T11:05:35.422Z,96198.41
2023-05-05T11:08:45.570Z,96199.88
2023-05-05T11:12:10.869Z,96194.34
2023-05-05T11:15:31.899Z,96181.66
2023-05-05T11:18:38.357Z,96181.25
2023-05-05T11:22:07.415Z,96180.56
2023-05-05T11:25:47.261Z,96190.16
2023-05-05T11:28:59.561Z,96182.22
2023-05-05T11:32:14.110Z,96185.53
2023-05-05T11:35:16.267Z,96173.22
2023-05-05T11:38:41.618Z,96179.72
2023-05-05T11:42:10.139Z,96174.53
2023-05-05T11:45:26.746Z,96164.72
2023-05-05T11:48:28.925Z,96161.47
2023-05-05T11:51:35.052Z,96167.66
2023-05-05T11:54:41.316Z,96161.78
2023-05-05T11:57:42.936Z,96147.25
2023-05-05T12:00:46.027Z,96156.38
2023-05-05T12:03:49.532Z,96153.78
2023-05-05T12:06:52.279Z,96149.16
2023-05-05T12:09:55.826Z,96158.66
2023-05-05T12:12:59.666Z,96150.84
2023-05-05T12:16:17.741Z,96148.84
2023-05-05T12:19:19.467Z,96139.41
2023-05-05T12:22:31.893Z,96140.84
2023-05-05T12:25:41.421Z,96143.84
2023-05-05T12:28:47.468Z,96136.19
2023-05-05T12:32:00.832Z,96132.13
2023-05-05T12:35:06.569Z,96122.56
2023-05-05T12:38:08.352Z,96121.25
2023-05-05T12:41:11.285Z,96122.53
2023-05-05T12:44:14.356Z,96111.38
2023-05-05T12:47:33.093Z,96121.44
2023-05-05T12:50:34.945Z,96110.31
2023-05-05T12:53:40.148Z,96102.34
2023-05-05T12:56:47.485Z,96098.31
2023-05-05T13:00:00.499Z,96096.97
2023-05-05T13:03:03.560Z,96096.00
2023-05-05T13:06:42.151Z,96081.56
2023-05-05T13:09:47.627Z,96071.84
2023-05-05T13:12:49.716Z,96072.00
2023-05-05T13:15:54.184Z,96074.25
2023-05-05T13:19:03.684Z,96069.63
2023-05-05T13:22:19.297Z,96065.72
2023-05-05T13:25:21.739Z,96060.13
2023-05-05T13:28:24.540Z,96065.56
2023-05-05T13:31:27.748Z,96053.88
2023-05-05T13:34:31.586Z,96046.78
2023-05-05T13:37:36.981Z,96040.16
2023-05-05T13:40:39.697Z,96033.44
2023-05-05T13:43:47.363Z,96028.09
2023-05-05T13:46:52.493Z,96024.19
2023-05-05T13:49:58.894Z,96031.88
2023-05-05T13:53:01.569Z,96025.84
2023-05-05T13:56:03.534Z,96022.28
2023-05-05T13:59:06.350Z,96014.16
2023-05-05T14:02:12.513Z,96019.13
2023-05-05T14:05:15.875Z,96014.09
2023-05-05T14:08:20.300Z,96011.28
2023-05-05T14:11:23.280Z,96007.97
2023-05-05T14:14:25.690Z,95998.66
2023-05-05T14:17:28.497Z,95996.41
2023-05-05T14:20:32.318Z,95992.38
2023-05-05T14:23:34.040Z,95990.94
2023-05-05T14:26:36.020Z,95993.19
2023-05-05T14:29:38.741Z,95985.72
2023-05-05T14:32:41.984Z,95993.09
2023-05-05T14:35:44.963Z,95986.50
2023-05-05T14:38:55.393Z,95994.09
2023-05-05T14:41:57.737Z,95984.84
2023-05-05T14:45:03.747Z,95987.16
2023-05-05T14:48:05.922Z,95986.66
2023-05-05T14:51:07.515Z,95987.41
2023-05-05T14:54:24.172Z,95989.53
2023-05-05T14:57:32.896Z,95984.19
2023-05-05T15:00:37.057Z,95983.75
2023-05-05T15:03:39.737Z,95977.53
2023-05-05T15:06:46.644Z,95977.16
2023-05-05T15:09:53.390Z,95981.94
2023-05-05T15:13:01.950Z,95970.41
2023-05-05T15:16:10.868Z,95968.63
2023-05-05T15:19:23.610Z,95966.13
2023-05-05T15:25:51.578Z,95957.03
2023-05-05T15:28:57.931Z,95952.75
2023-05-05T15:32:01.572Z,95957.38
2023-05-05T15:35:07.510Z,95952.16
2023-05-05T15:38:10.375Z,95960.19
2023-05-05T15:41:13.677Z,95953.44
2023-05-05T15:44:18.295Z,95956.28
2023-05-05T15:47:20.723Z,95964.34
2023-05-05T15:50:23.713Z,95960.03
2023-05-05T15:53:26.794Z,95966.13
2023-05-05T15:56:30.075Z,95961.84
2023-05-05T15:59:32.870Z,95945.25
2023-05-05T16:02:36.070Z,95950.31
2023-05-05T16:05:40.403Z,95954.16
2023-05-05T16:08:43.756Z,95945.50
2023-05-05T16:11:45.339Z,95938.13
2023-05-05T16:14:48.248Z,95952.75
2023-05-05T16:17:54.175Z,95952.50
2023-05-05T16:20:56.404Z,95959.09
2023-05-05T16:23:58.109Z,95959.91
2023-05-05T16:27:00.846Z,95952.84
2023-05-05T16:30:02.852Z,95947.91
2023-05-05T16:33:04.558Z,95950.56
2023-05-05T16:36:10.221Z,95953.34
2023-05-05T16:39:12.580Z,95949.34
2023-05-05T16:42:14.820Z,95935.78
2023-05-05T16:45:16.906Z,95943.72
2023-05-05T16:48:18.610Z,95941.56
2023-05-05T16:51:30.779Z,95930.94
2023-05-05T16:54:35.001Z,95932.84
2023-05-05T16:57:39.545Z,95927.06
2023-05-05T17:00:55.071Z,95935.25
2023-05-05T17:04:01.859Z,95932.28
2023-05-05T17:07:03.946Z,95932.84
2023-05-05T17:10:07.585Z,95910.00
2023-05-05T17:13:12.033Z,95897.22
2023-05-05T17:16:13.832Z,95874.03
2023-05-05T17:19:29.557Z,95871.69
2023-05-05T17:22:35.019Z,95865.41
2023-05-05T17:25:40.231Z,95866.78
2023-05-05T17:28:43.289Z,95866.31
2023-05-05T17:31:50.263Z,95835.78
2023-05-05T17:34:54.497Z,95848.63
2023-05-05T17:37:57.627Z,95852.72
2023-05-05T17:41:28.424Z,95840.53
2023-05-05T17:44:35.823Z,95834.59
2023-05-05T17:47:40.349Z,95843.75
2023-05-05T17:50:46.825Z,95891.69
2023-05-05T17:54:00.378Z,95908.09
2023-05-05T17:57:04.917Z,95899.66
2023-05-05T18:00:11.254Z,95905.13
2023-05-05T18:03:22.568Z,95923.75
2023-05-05T18:06:29.866Z,95941.19
2023-05-05T18:09:34.413Z,95950.56
2023-05-05T18:12:39.336Z,95961.34
2023-05-05T18:15:45.598Z,96032.41
2023-05-05T18:18:57.373Z,96110.81
2023-05-05T18:22:03.531Z,96111.94
2023-05-05T18:25:08.034Z,96123.16
2023-05-05T18:28:21.482Z,96126.88
2023-05-05T18:31:27.313Z,96151.44
2023-05-05T18:34:31.536Z,96138.09
2023-05-05T18:40:51.529Z,96152.31
2023-05-05T18:43:55.295Z,96129.22
2023-05-05T18:47:00.670Z,96137.53
2023-05-05T18:50:05.780Z,96131.13
2023-05-05T18:53:13.776Z,96146.09
2023-05-05T18:56:19.496Z,96148.16
2023-05-05T18:59:24.799Z,96152.38
2023-05-05T19:02:30.190Z,96151.91
2023-05-05T19:05:32.023Z,96141.84
2023-05-05T19:08:35.493Z,96123.97
2023-05-05T19:11:42.112Z,96113.44
2023-05-05T19:14:53.375Z,96067.63
2023-05-05T19:18:18.530Z,96077.44
2023-05-05T19:21:21.478Z,96121.69
2023-05-05T19:24:34.527Z,96135.31
2023-05-05T19:27:41.462Z,96143.81
2023-05-05T19:30:54.380Z,96188.13
2023-05-05T19:34:04.737Z,96168.31
2023-05-05T19:37:08.696Z,96180.53
2023-05-05T19:40:11.775Z,96184.03
2023-05-05T19:43:18.657Z,96190.09
2023-05-05T19:46:32.700Z,96187.03
2023-05-05T19:49:38.775Z,96188.50
2023-05-05T19:52:41.990Z,96201.59
2023-05-05T19:55:50.528Z,96207.81
2023-05-05T19:59:05.551Z,96200.56
2023-05-05T20:02:28.178Z,96207.41
2023-05-05T20:05:34.080Z,96204.53
2023-05-05T20:08:41.141Z,96203.09
2023-05-05T20:11:43.512Z,96197.22
2023-05-05T20:14:50.187Z,96187.13
2023-05-05T20:17:51.949Z,96191.66
2023-05-05T20:20:54.110Z,96193.53
2023-05-05T20:23:55.927Z,96201.78
2023-05-05T20:26:58.045Z,96208.56
2023-05-05T20:30:03.070Z,96219.47
2023-05-05T20:33:05.073Z,96229.75
2023-05-05T20:36:07.345Z,96248.97
2023-05-05T20:39:14.637Z,96242.81
2023-05-05T20:42:17.032Z,96247.34
2023-05-05T20:45:18.819Z,96247.25
2023-05-05T20:48:20.967Z,96240.09
2023-05-05T20:51:22.692Z,96238.81
2023-05-05T20:54:24.769Z,96242.69
2023-05-05T20:57:27.188Z,96241.34
2023-05-05T21:00:28.840Z,96236.53
2023-05-05T21:03:32.668Z,96237.56
2023-05-05T21:06:34.516Z,96234.41
2023-05-05T21:09:36.636Z,96243.47
2023-05-05T21:12:41.922Z,96238.28
2023-05-05T21:15:43.992Z,96235.13
2023-05-05T21:18:47.293Z,96233.28
2023-05-05T21:21:49.541Z,96239.84
2023-05-05T21:24:51.244Z,96241.03
2023-05-05T21:27:53.379Z,96243.72
2023-05-05T21:31:10.154Z,96238.50
2023-05-05T21:34:18.175Z,96240.19
2023-05-05T21:37:20.239Z,96245.56
2023-05-05T21:40:22.627Z,96240.56
2023-05-05T21:43:25.957Z,96240.75
2023-05-05T21:46:27.634Z,96247.13
2023-05-05T21:49:29.771Z,96241.94
2023-05-05T21:52:31.944Z,96236.56
2023-05-05T21:55:33.727Z,96229.06
2023-05-05T21:58:35.896Z,96229.88
2023-05-05T22:01:37.708Z,96213.09
2023-05-05T22:04:40.095Z,96216.34
2023-05-05T22:07:42.161Z,96208.63
2023-05-05T22:10:43.761Z,96215.22
2023-05-05T22:13:46.723Z,96208.19
2023-05-05T22:16:48.314Z,96207.50
2023-05-05T22:19:51.499Z,96191.75
2023-05-05T22:22:53.061Z,96193.59
2023-05-05T22:25:55.320Z,96184.06
2023-05-05T22:28:57.693Z,96202.88
2023-05-05T22:31:59.847Z,96206.38
2023-05-05T22:35:01.922Z,96214.63
2023-05-05T22:38:04.313Z,96211.09
2023-05-05T22:41:07.430Z,96213.78
2023-05-05T22:44:10.310Z,96214.78
2023-05-05T22:47:13.225Z,96211.63
2023-05-05T22:50:15.531Z,96211.97
2023-05-05T22:53:20.907Z,96221.72
2023-05-05T22:56:23.394Z,96214.50
2023-05-05T22:59:25.673Z,96213.66
2023-05-05T23:02:27.479Z,96216.34
2023-05-05T23:05:29.205Z,96213.00
2023-05-05T23:08:33.598Z,96209.28
2023-05-05T23:11:36.246Z,96201.25
2023-05-05T23:14:38.456Z,96206.63
2023-05-05T23:17:40.069Z,96199.09
2023-05-05T23:20:42.159Z,96209.28
2023-05-05T23:23:45.661Z,96194.38
2023-05-05T23:26:47.350Z,96198.56
2023-05-05T23:29:51.137Z,96191.91
2023-05-05T23:32:53.274Z,96199.56
2023-05-05T23:35:54.869Z,96198.72
2023-05-05T23:38:56.445Z,96208.63
2023-05-05T23:41:58.113Z,96199.09
2023-05-05T23:45:00.298Z,96201.78
2023-05-05T23:48:04.597Z,96200.94
2023-05-05T23:51:06.241Z,96197.59
2023-05-05T23:54:07.932Z,96190.22
2023-05-05T23:57:10.576Z,96194.75
